Time;durP1;ratioP1;P1;durP2;ratioP2;P2;SDS_P1;SDS_P2;PMS_P1;PMS_P2;Temp;Humidity;BMP_temperature;BMP_pressure;BME280_temperature;BME280_humidity;BME280_pressure;Samples;Min_cycle;Max_cycle;Signal;HPM_P1;HPM_P2
2023/01/01 00:00:09;;;;;;;15.77;7.38;;;11.40;99.90;;;;;;5047337;28;20494;-52
2023/01/01 00:02:35;;;;;;;18.42;8.38;;;11.50;99.90;;;;;;5046897;28;20041;-51
2023/01/01 00:05:00;;;;;;;18.75;7.97;;;11.50;99.90;;;;;;5047904;28;20044;-52
2023/01/01 00:07:27;;;;;;;18.67;9.65;;;11.40;99.90;;;;;;5047714;28;20102;-50
2023/01/01 00:12:37;;;;;;;31.17;18.10;;;11.40;99.90;;;;;;5047593;28;20372;-51
2023/01/01 00:15:03;;;;;;;35.05;21.55;;;11.40;99.90;;;;;;5047338;28;20041;-49
2023/01/01 00:17:29;;;;;;;41.17;28.05;;;11.40;99.90;;;;;;5046358;28;20395;-47
2023/01/01 00:19:55;;;;;;;38.13;26.55;;;11.30;99.90;;;;;;5047043;28;20120;-51
2023/01/01 00:22:20;;;;;;;41.20;30.35;;;11.30;99.90;;;;;;5046969;28;20238;-49
2023/01/01 00:24:46;;;;;;;46.05;33.60;;;11.30;99.90;;;;;;5046906;28;20036;-50
2023/01/01 00:27:12;;;;;;;48.22;33.78;;;11.30;99.90;;;;;;5047227;28;20037;-51
2023/01/01 00:29:37;;;;;;;61.65;39.00;;;11.20;99.90;;;;;;5046542;28;20578;-51
2023/01/01 00:32:03;;;;;;;59.53;39.15;;;11.10;99.90;;;;;;5047093;28;20044;-51
2023/01/01 00:34:29;;;;;;;55.55;38.90;;;11.20;99.90;;;;;;5046565;28;20041;-49
2023/01/01 00:36:56;;;;;;;52.50;38.63;;;11.10;99.90;;;;;;5045221;28;20467;-52
2023/01/01 00:39:21;;;;;;;54.55;37.28;;;11.10;99.90;;;;;;5046760;28;20041;-53
2023/01/01 00:41:47;;;;;;;53.63;38.83;;;11.10;99.90;;;;;;5046543;28;20089;-51
2023/01/01 00:44:13;;;;;;;60.42;39.03;;;11.10;99.90;;;;;;5046681;28;20045;-52
2023/01/01 00:46:38;;;;;;;53.10;32.50;;;11.10;99.90;;;;;;5046680;28;20045;-52
2023/01/01 00:49:04;;;;;;;42.83;31.00;;;11.00;99.90;;;;;;5046581;28;20044;-52
2023/01/01 00:51:30;;;;;;;49.67;30.00;;;11.00;99.90;;;;;;5047004;28;20041;-48
2023/01/01 00:53:55;;;;;;;43.53;28.10;;;10.90;99.90;;;;;;5046594;28;20513;-50
2023/01/01 00:56:21;;;;;;;38.22;26.00;;;10.90;99.90;;;;;;5046959;28;20589;-52
2023/01/01 00:58:47;;;;;;;35.58;25.08;;;11.00;99.90;;;;;;5046306;28;20053;-53
2023/01/01 01:01:12;;;;;;;39.78;24.92;;;10.90;99.90;;;;;;5047150;28;20053;-53
2023/01/01 01:03:38;;;;;;;38.33;23.77;;;11.10;99.90;;;;;;5046219;28;20056;-52
2023/01/01 01:06:04;;;;;;;34.75;22.17;;;11.00;99.90;;;;;;5046808;28;20052;-50
2023/01/01 01:08:33;;;;;;;32.40;21.30;;;11.00;99.90;;;;;;5046377;28;20049;-50
2023/01/01 01:11:07;;;;;;;34.88;22.70;;;11.00;99.90;;;;;;5044957;28;20064;-49
2023/01/01 01:13:33;;;;;;;35.90;20.80;;;11.20;99.90;;;;;;5046444;28;20048;-48
2023/01/01 01:15:59;;;;;;;41.60;22.70;;;11.00;99.90;;;;;;5045971;28;20422;-52
2023/01/01 01:18:25;;;;;;;37.42;23.98;;;11.00;99.90;;;;;;5040819;28;20057;-51
2023/01/01 01:20:52;;;;;;;34.33;21.10;;;11.00;99.90;;;;;;5046027;28;20072;-52
2023/01/01 01:23:19;;;;;;;33.58;21.40;;;11.00;99.90;;;;;;5046643;28;20744;-52
2023/01/01 01:25:44;;;;;;;33.60;22.20;;;11.10;99.90;;;;;;5046783;28;20040;-51
2023/01/01 01:28:10;;;;;;;35.35;23.48;;;11.20;99.90;;;;;;5046005;28;20121;-51
2023/01/01 01:30:39;;;;;;;35.42;23.55;;;11.10;99.90;;;;;;5046566;28;20127;-51
2023/01/01 01:33:05;;;;;;;35.55;24.05;;;11.10;99.90;;;;;;5046425;28;20036;-51
2023/01/01 01:35:32;;;;;;;46.47;25.50;;;11.10;99.90;;;;;;5046345;28;20576;-51
2023/01/01 01:37:58;;;;;;;46.75;25.95;;;11.10;99.90;;;;;;5046401;28;20091;-51
2023/01/01 01:40:23;;;;;;;35.10;23.58;;;11.20;99.90;;;;;;5046486;28;20084;-49
2023/01/01 01:42:50;;;;;;;39.70;25.80;;;11.20;99.90;;;;;;5045793;28;20098;-52
2023/01/01 01:45:17;;;;;;;40.03;23.23;;;11.10;99.90;;;;;;5046161;28;20102;-51
2023/01/01 01:47:51;;;;;;;37.08;24.65;;;11.10;99.90;;;;;;5046644;28;20076;-49
2023/01/01 01:50:38;;;;;;;39.15;24.92;;;11.10;99.90;;;;;;5046963;28;20053;-50
2023/01/01 01:53:40;;;;;;;38.22;23.70;;;11.40;99.90;;;;;;5046694;28;20064;-49
2023/01/01 01:56:12;;;;;;;36.97;23.70;;;11.10;99.90;;;;;;5045104;28;20053;-51
2023/01/01 01:58:38;;;;;;;40.97;24.13;;;11.30;99.90;;;;;;5046738;28;20272;-50
2023/01/01 02:01:04;;;;;;;40.38;22.02;;;11.10;99.90;;;;;;5046390;28;20125;-51
2023/01/01 02:03:42;;;;;;;34.85;22.38;;;11.10;99.90;;;;;;5046458;28;20041;-51
2023/01/01 02:06:09;;;;;;;30.70;21.38;;;8.50;99.90;;;;;;5046338;28;20045;-51
2023/01/01 02:08:35;;;;;;;28.92;21.13;;;11.10;99.90;;;;;;5046334;28;20479;-51
2023/01/01 02:11:01;;;;;;;38.28;24.17;;;11.00;99.90;;;;;;5046263;28;20041;-51
2023/01/01 02:13:27;;;;;;;35.35;21.20;;;11.00;99.90;;;;;;5046609;28;20041;-53
2023/01/01 02:16:10;;;;;;;36.47;22.45;;;11.00;99.90;;;;;;5046159;28;20045;-51
2023/01/01 02:18:56;;;;;;;32.05;20.98;;;11.10;99.90;;;;;;5047159;28;20049;-52
2023/01/01 02:21:37;;;;;;;33.40;23.17;;;11.00;99.90;;;;;;5046926;28;20099;-50
2023/01/01 02:24:15;;;;;;;36.65;22.15;;;11.10;99.90;;;;;;5046034;28;20037;-51
2023/01/01 02:26:46;;;;;;;39.22;22.15;;;11.10;99.90;;;;;;5046761;28;20043;-48
2023/01/01 02:29:41;;;;;;;28.48;19.40;;;11.10;99.90;;;;;;5046187;28;20522;-48
2023/01/01 02:32:11;;;;;;;26.92;18.20;;;11.10;99.90;;;;;;5046492;28;20045;-51
2023/01/01 02:34:53;;;;;;;33.85;20.70;;;11.10;99.90;;;;;;5046772;28;20041;-53
2023/01/01 02:37:21;;;;;;;29.52;17.35;;;11.10;99.90;;;;;;5046314;28;20112;-51
2023/01/01 02:39:52;;;;;;;29.77;17.15;;;11.10;99.90;;;;;;5048172;28;20080;-51
2023/01/01 02:42:19;;;;;;;27.83;17.02;;;11.10;99.90;;;;;;5050490;28;20084;-52
2023/01/01 02:44:49;;;;;;;23.08;13.82;;;11.10;99.90;;;;;;5049921;28;20081;-49
2023/01/01 02:47:17;;;;;;;29.40;15.60;;;11.20;99.90;;;;;;5049625;28;20127;-50
2023/01/01 02:50:07;;;;;;;27.15;15.13;;;11.20;99.90;;;;;;5050041;28;20424;-53
2023/01/01 02:52:41;;;;;;;31.27;15.15;;;11.20;99.90;;;;;;5050440;28;20041;-51
2023/01/01 02:55:23;;;;;;;23.05;13.15;;;11.40;99.90;;;;;;5049557;28;20153;-51
2023/01/01 03:01:01;;;;;;;19.63;11.35;;;11.40;99.90;;;;;;5050120;28;20055;-49
2023/01/01 03:03:31;;;;;;;;;;;11.40;99.90;;;;;;5050836;28;20048;-52
2023/01/01 03:06:25;;;;;;;17.05;10.95;;;11.40;99.90;;;;;;5050119;28;19964;-49
2023/01/01 03:09:02;;;;;;;22.17;11.75;;;11.40;99.90;;;;;;5050504;28;20052;-49
2023/01/01 03:11:57;;;;;;;21.65;11.00;;;12.00;99.90;;;;;;5050436;28;20044;-50
2023/01/01 03:14:47;;;;;;;19.10;10.30;;;11.60;99.90;;;;;;5045125;28;20080;-47
2023/01/01 03:17:28;;;;;;;24.02;11.43;;;11.50;99.90;;;;;;5049449;28;20053;-51
2023/01/01 03:19:56;;;;;;;19.25;9.00;;;11.50;99.90;;;;;;5050049;28;20059;-47
2023/01/01 03:22:34;;;;;;;15.07;8.63;;;11.50;99.90;;;;;;5049679;28;20044;-50
2023/01/01 03:25:06;;;;;;;15.52;7.63;;;11.50;99.90;;;;;;5049726;28;20111;-51
2023/01/01 03:27:49;;;;;;;15.00;7.32;;;11.60;99.90;;;;;;5049523;28;20399;-48
2023/01/01 03:30:18;;;;;;;14.40;5.90;;;11.60;99.90;;;;;;5049127;28;20087;-50
2023/01/01 03:33:06;;;;;;;12.82;5.47;;;11.70;99.90;;;;;;5049747;28;20068;-49
2023/01/01 03:35:47;;;;;;;13.07;5.43;;;11.80;99.90;;;;;;5049105;28;20716;-49
2023/01/01 03:38:21;;;;;;;15.00;4.60;;;11.90;99.90;;;;;;5049403;28;20037;-50
2023/01/01 03:40:49;;;;;;;11.70;4.70;;;11.90;99.90;;;;;;5048253;28;20048;-50
2023/01/01 03:43:21;;;;;;;12.07;3.80;;;12.00;99.90;;;;;;5048953;28;20040;-50
2023/01/01 03:45:48;;;;;;;;;;;12.10;99.90;;;;;;5049847;28;20048;-49
2023/01/01 03:48:14;;;;;;;13.20;3.40;;;12.10;99.90;;;;;;5049157;28;19927;-49
2023/01/01 03:51:09;;;;;;;10.45;2.75;;;12.40;99.90;;;;;;5048546;28;20037;-49
2023/01/01 03:53:40;;;;;;;11.30;2.80;;;12.20;99.90;;;;;;5047627;28;20495;-50
2023/01/01 03:56:26;;;;;;;8.45;2.55;;;12.20;99.90;;;;;;5049109;28;20072;-49
2023/01/01 03:58:53;;;;;;;5.85;1.90;;;12.30;99.90;;;;;;5049295;28;20151;-48
2023/01/01 04:01:36;;;;;;;8.38;2.55;;;12.30;99.90;;;;;;5048907;28;20052;-48
2023/01/01 04:04:04;;;;;;;10.90;2.28;;;12.40;99.90;;;;;;5049444;28;20051;-50
2023/01/01 04:06:32;;;;;;;9.25;2.53;;;12.40;99.90;;;;;;5049323;28;20048;-47
2023/01/01 04:08:59;;;;;;;7.53;1.48;;;12.40;99.90;;;;;;5048796;28;20510;-48
2023/01/01 04:14:26;;;;;;;9.68;1.98;;;12.50;99.90;;;;;;5048794;28;20056;-52
2023/01/01 04:16:52;;;;;;;8.65;1.75;;;12.50;99.90;;;;;;5048664;28;20049;-47
2023/01/01 04:19:17;;;;;;;10.20;1.98;;;12.50;99.90;;;;;;5049200;28;20060;-47
2023/01/01 04:21:43;;;;;;;11.57;2.10;;;12.50;99.90;;;;;;5048817;28;20116;-50
2023/01/01 04:24:09;;;;;;;8.65;1.20;;;12.40;99.90;;;;;;5048663;28;20049;-50
2023/01/01 04:26:34;;;;;;;10.63;2.58;;;12.50;99.90;;;;;;5048578;28;20056;-50
2023/01/01 04:29:00;;;;;;;8.13;1.45;;;12.70;99.90;;;;;;5048792;28;20045;-48
2023/01/01 04:31:26;;;;;;;6.93;1.45;;;12.40;99.90;;;;;;5048637;28;20040;-49
2023/01/01 04:33:54;;;;;;;10.18;1.13;;;12.40;99.90;;;;;;5046794;28;20044;-50
2023/01/01 04:36:20;;;;;;;5.45;1.30;;;12.40;99.90;;;;;;5048022;28;20124;-49
2023/01/01 04:38:46;;;;;;;7.88;1.42;;;12.50;99.90;;;;;;5048386;28;20116;-50
2023/01/01 04:41:11;;;;;;;7.38;1.15;;;12.50;99.90;;;;;;5048083;28;20040;-50
2023/01/01 04:43:37;;;;;;;4.65;1.40;;;12.50;99.90;;;;;;5048546;28;20045;-47
2023/01/01 04:46:03;;;;;;;12.85;2.13;;;12.50;99.90;;;;;;5048757;28;20597;-51
2023/01/01 04:48:30;;;;;;;7.15;1.02;;;12.40;99.90;;;;;;5048091;28;20087;-48
2023/01/01 04:50:58;;;;;;;9.05;1.80;;;12.30;99.90;;;;;;5048718;28;20085;-48
2023/01/01 04:53:24;;;;;;;6.63;1.25;;;12.20;99.90;;;;;;5047994;28;20126;-47
2023/01/01 04:55:50;;;;;;;7.25;1.30;;;12.10;99.90;;;;;;5048371;28;20033;-48
2023/01/01 04:58:16;;;;;;;10.55;1.35;;;12.00;99.90;;;;;;5047990;28;20106;-48
2023/01/01 05:00:41;;;;;;;9.25;1.38;;;12.00;99.90;;;;;;5048638;28;20052;-50
2023/01/01 05:03:07;;;;;;;8.98;1.77;;;12.00;99.90;;;;;;5048144;28;20045;-48
2023/01/01 05:05:32;;;;;;;5.05;0.80;;;11.90;99.90;;;;;;5047892;28;20115;-48
2023/01/01 05:07:58;;;;;;;7.03;1.23;;;12.20;99.90;;;;;;5047023;28;20106;-50
2023/01/01 05:10:24;;;;;;;3.85;0.85;;;12.40;99.90;;;;;;5048447;28;20060;-48
2023/01/01 05:12:49;;;;;;;5.25;1.02;;;11.90;99.90;;;;;;5048328;28;20055;-50
2023/01/01 05:15:15;;;;;;;7.65;0.98;;;12.30;99.90;;;;;;5047915;28;20052;-51
2023/01/01 05:17:41;;;;;;;8.93;3.22;;;12.00;99.90;;;;;;5046768;28;20068;-48
2023/01/01 05:20:07;;;;;;;9.65;2.08;;;12.00;99.90;;;;;;5048041;28;20555;-49
2023/01/01 05:22:32;;;;;;;6.43;1.00;;;12.00;99.90;;;;;;5047699;28;20048;-47
2023/01/01 05:24:58;;;;;;;8.55;0.98;;;12.00;99.90;;;;;;5048013;28;20730;-48
2023/01/01 05:27:24;;;;;;;5.35;2.00;;;12.00;99.90;;;;;;5047648;28;20128;-49
2023/01/01 05:29:49;;;;;;;5.53;1.05;;;12.00;99.90;;;;;;5047602;28;20053;-51
2023/01/01 05:32:15;;;;;;;5.05;0.80;;;12.10;99.90;;;;;;5047716;28;20041;-49
2023/01/01 05:34:41;;;;;;;8.50;0.73;;;12.10;99.90;;;;;;5046917;28;20501;-47
2023/01/01 05:37:06;;;;;;;8.25;1.17;;;12.10;99.90;;;;;;5047226;28;20386;-49
2023/01/01 05:39:32;;;;;;;6.53;1.20;;;12.00;99.90;;;;;;5047050;28;20482;-48
2023/01/01 05:41:58;;;;;;;3.60;0.75;;;12.00;99.90;;;;;;5047353;28;20134;-51
2023/01/01 05:44:23;;;;;;;5.97;0.85;;;12.10;99.90;;;;;;5046916;28;20041;-53
2023/01/01 05:46:49;;;;;;;5.75;0.93;;;12.00;99.90;;;;;;5047160;28;20041;-52
2023/01/01 05:49:14;;;;;;;7.00;1.48;;;12.00;99.90;;;;;;5047272;28;20474;-50
2023/01/01 05:51:40;;;;;;;4.75;0.95;;;12.00;99.90;;;;;;5046840;28;20394;-49
2023/01/01 05:54:06;;;;;;;8.27;0.77;;;12.00;99.90;;;;;;5046929;28;20049;-48
2023/01/01 05:56:32;;;;;;;7.10;1.63;;;12.00;99.90;;;;;;5046338;28;20149;-47
2023/01/01 05:58:58;;;;;;;4.25;0.55;;;12.00;99.90;;;;;;5046708;28;20049;-50
2023/01/01 06:01:26;;;;;;;2.00;0.70;;;12.10;99.90;;;;;;5046240;28;20075;-49
2023/01/01 06:03:53;;;;;;;5.82;1.45;;;12.00;99.90;;;;;;5047085;28;20044;-52
2023/01/01 06:06:21;;;;;;;4.07;0.32;;;12.00;99.90;;;;;;5046899;28;20420;-47
2023/01/01 06:09:05;;;;;;;2.35;0.50;;;12.00;99.90;;;;;;5046607;28;20951;-48
2023/01/01 06:11:32;;;;;;;3.25;0.50;;;12.00;99.90;;;;;;5046077;28;20040;-52
2023/01/01 06:13:59;;;;;;;4.68;0.57;;;11.90;99.90;;;;;;5048707;28;20084;-47
2023/01/01 06:16:25;;;;;;;3.55;0.65;;;11.90;99.90;;;;;;5052475;28;20044;-50
2023/01/01 06:18:51;;;;;;;4.80;0.60;;;11.80;99.90;;;;;;5052767;28;20609;-51
2023/01/01 06:21:20;;;;;;;5.25;0.70;;;11.80;99.90;;;;;;5052958;28;20459;-50
2023/01/01 06:23:46;;;;;;;5.10;0.70;;;11.80;99.90;;;;;;5052552;28;20120;-51
2023/01/01 06:26:18;;;;;;;3.15;0.40;;;11.80;99.90;;;;;;5053324;28;20123;-49
2023/01/01 06:28:45;;;;;;;2.35;0.20;;;12.10;99.90;;;;;;5051300;28;20472;-50
2023/01/01 06:31:12;;;;;;;3.80;0.60;;;11.70;99.90;;;;;;5053222;28;20033;-49
2023/01/01 06:33:38;;;;;;;1.63;0.22;;;11.70;99.90;;;;;;5052311;28;20505;-50
2023/01/01 06:36:07;;;;;;;3.78;0.50;;;11.70;99.90;;;;;;5051245;28;20107;-50
2023/01/01 06:38:34;;;;;;;3.45;0.82;;;11.60;99.90;;;;;;5052822;28;20069;-50
2023/01/01 06:41:09;;;;;;;3.65;0.50;;;11.60;99.90;;;;;;5052951;28;20114;-48
2023/01/01 06:43:35;;;;;;;4.07;0.30;;;11.50;99.90;;;;;;5052780;28;20491;-50
2023/01/01 06:46:02;;;;;;;3.90;0.60;;;11.60;99.90;;;;;;5053081;28;20049;-50
2023/01/01 06:48:30;;;;;;;4.25;0.40;;;11.50;99.90;;;;;;5052584;28;20135;-50
2023/01/01 06:50:55;;;;;;;3.70;0.30;;;11.50;99.90;;;;;;5052711;28;20037;-51
2023/01/01 06:53:25;;;;;;;2.33;0.35;;;11.50;99.90;;;;;;5052408;28;20596;-50
2023/01/01 06:55:51;;;;;;;7.22;0.40;;;11.50;99.90;;;;;;5052769;28;20049;-48
2023/01/01 06:58:16;;;;;;;5.10;0.98;;;11.60;99.90;;;;;;5052827;28;20045;-52
2023/01/01 07:00:42;;;;;;;2.55;0.70;;;11.60;99.90;;;;;;5052731;28;20098;-50
2023/01/01 07:03:11;;;;;;;8.63;0.73;;;11.60;99.90;;;;;;5052798;28;20131;-50
2023/01/01 07:05:37;;;;;;;4.75;0.40;;;11.50;99.90;;;;;;5052674;28;20128;-50
2023/01/01 07:08:03;;;;;;;4.78;0.93;;;11.50;99.90;;;;;;5053050;28;20140;-51
2023/01/01 07:10:28;;;;;;;3.22;0.55;;;11.50;99.90;;;;;;5052833;28;20052;-49
2023/01/01 07:12:54;;;;;;;4.30;0.45;;;11.40;99.90;;;;;;5053225;28;20090;-48
2023/01/01 07:15:20;;;;;;;6.93;0.50;;;11.40;99.90;;;;;;5053141;28;20043;-51
2023/01/01 07:17:47;;;;;;;5.55;0.50;;;11.40;99.90;;;;;;5052691;28;20084;-50
2023/01/01 07:20:12;;;;;;;6.18;0.75;;;11.40;99.90;;;;;;5052922;28;20068;-48
2023/01/01 07:22:39;;;;;;;4.45;0.57;;;11.40;99.90;;;;;;5052671;28;20044;-49
2023/01/01 07:25:06;;;;;;;5.35;0.50;;;11.30;99.90;;;;;;5051696;28;20033;-51
2023/01/01 07:27:32;;;;;;;7.00;1.38;;;11.40;99.90;;;;;;5048037;28;20053;-50
2023/01/01 07:29:57;;;;;;;6.50;0.70;;;11.30;99.90;;;;;;5049359;28;20131;-50
2023/01/01 07:32:23;;;;;;;6.65;0.77;;;11.30;99.90;;;;;;5049504;28;20037;-51
2023/01/01 07:34:49;;;;;;;7.00;0.50;;;11.30;99.90;;;;;;5047872;28;20179;-48
2023/01/01 07:37:14;;;;;;;7.20;0.68;;;11.20;99.90;;;;;;5049780;28;20375;-52
2023/01/01 07:39:40;;;;;;;7.72;0.65;;;11.20;99.90;;;;;;5049127;28;20067;-48
2023/01/01 07:42:06;;;;;;;6.93;0.60;;;11.20;99.90;;;;;;5049004;28;20383;-51
2023/01/01 07:44:31;;;;;;;5.50;0.65;;;11.20;99.90;;;;;;5049130;28;20454;-49
2023/01/01 07:47:04;;;;;;;5.53;0.80;;;11.20;99.90;;;;;;5048693;28;20893;-49
2023/01/01 07:49:30;;;;;;;7.70;1.25;;;11.20;99.90;;;;;;5048669;28;20045;-51
2023/01/01 07:51:56;;;;;;;7.43;0.70;;;11.50;99.90;;;;;;5048578;28;20047;-49
2023/01/01 07:54:21;;;;;;;8.23;1.13;;;11.20;99.90;;;;;;5048702;28;20041;-51
2023/01/01 07:56:47;;;;;;;5.32;0.90;;;11.20;99.90;;;;;;5048888;28;20080;-49
2023/01/01 07:59:13;;;;;;;7.78;0.95;;;11.50;99.90;;;;;;5048970;28;20049;-51
2023/01/01 08:01:38;;;;;;;4.80;0.60;;;11.20;99.90;;;;;;5048813;28;20045;-51
2023/01/01 08:04:04;;;;;;;6.85;0.63;;;11.20;99.90;;;;;;5048627;28;20119;-48
2023/01/01 08:06:30;;;;;;;8.50;0.77;;;11.20;99.90;;;;;;5049278;28;20136;-51
2023/01/01 08:08:55;;;;;;;6.03;0.90;;;11.30;99.90;;;;;;5048680;28;20104;-52
2023/01/01 08:11:21;;;;;;;11.52;1.98;;;11.10;99.90;;;;;;5047302;28;20048;-51
2023/01/01 08:13:47;;;;;;;6.20;0.70;;;11.10;99.90;;;;;;5048639;28;20045;-50
2023/01/01 08:16:12;;;;;;;7.80;0.90;;;11.10;99.90;;;;;;5048404;28;20045;-51
2023/01/01 08:18:38;;;;;;;8.43;1.13;;;11.20;99.90;;;;;;5048026;28;20147;-52
2023/01/01 08:21:04;;;;;;;4.30;0.50;;;11.00;99.90;;;;;;5048046;28;20049;-50
2023/01/01 08:23:30;;;;;;;10.35;0.80;;;11.00;99.90;;;;;;5048525;28;20041;-49
2023/01/01 08:26:02;;;;;;;5.65;0.90;;;11.00;99.90;;;;;;5048067;28;20048;-47
2023/01/01 08:28:29;;;;;;;8.80;0.82;;;11.00;99.90;;;;;;5048191;28;20438;-49
2023/01/01 08:30:54;;;;;;;9.18;0.73;;;11.00;99.90;;;;;;5047911;28;20052;-49
2023/01/01 08:33:21;;;;;;;10.05;2.10;;;11.10;99.90;;;;;;5048071;28;20387;-50
2023/01/01 08:35:48;;;;;;;11.07;1.33;;;11.00;99.90;;;;;;5047251;28;20053;-50
2023/01/01 08:38:13;;;;;;;7.50;1.60;;;11.00;99.90;;;;;;5047839;28;20045;-51
2023/01/01 08:40:39;;;;;;;7.75;0.85;;;11.00;99.90;;;;;;5047961;28;20095;-51
2023/01/01 08:43:05;;;;;;;8.82;0.55;;;11.00;99.90;;;;;;5047627;28;20041;-49
2023/01/01 08:45:31;;;;;;;8.85;1.05;;;11.00;99.90;;;;;;5047940;28;20051;-49
2023/01/01 08:47:56;;;;;;;7.55;1.20;;;10.90;99.90;;;;;;5047494;28;20477;-51
2023/01/01 08:50:22;;;;;;;7.95;0.88;;;10.90;99.90;;;;;;5047519;28;20091;-51
2023/01/01 08:52:48;;;;;;;7.70;0.75;;;10.90;99.90;;;;;;5047934;28;20127;-52
2023/01/01 08:55:13;;;;;;;11.52;1.63;;;10.80;99.90;;;;;;5047936;28;20032;-49
2023/01/01 08:57:39;;;;;;;8.35;1.67;;;10.90;99.90;;;;;;5047911;28;20044;-51
2023/01/01 09:00:08;;;;;;;9.38;0.70;;;10.80;99.90;;;;;;5047632;28;20068;-52
2023/01/01 09:02:34;;;;;;;9.70;0.75;;;10.90;99.90;;;;;;5048009;28;20094;-50
2023/01/01 09:04:59;;;;;;;9.43;0.90;;;10.90;99.90;;;;;;5047171;28;20104;-49
2023/01/01 09:07:25;;;;;;;7.82;1.35;;;10.90;99.90;;;;;;5047464;28;20075;-52
2023/01/01 09:09:51;;;;;;;6.28;0.52;;;10.90;99.90;;;;;;5047419;28;20041;-51
2023/01/01 09:12:16;;;;;;;7.22;0.70;;;10.90;99.90;;;;;;5047493;28;20064;-51
2023/01/01 09:14:45;;;;;;;14.50;0.82;;;10.90;99.90;;;;;;5047473;28;20114;-51
2023/01/01 09:17:11;;;;;;;8.63;1.10;;;10.90;99.90;;;;;;5047361;28;20878;-49
2023/01/01 09:19:36;;;;;;;10.48;0.88;;;10.90;99.90;;;;;;5047363;28;20044;-48
2023/01/01 09:22:02;;;;;;;5.93;0.47;;;11.00;99.90;;;;;;5046949;28;20106;-50
2023/01/01 09:24:28;;;;;;;8.30;0.60;;;11.00;99.90;;;;;;5047301;28;20052;-51
2023/01/01 09:26:53;;;;;;;12.68;0.95;;;11.00;99.90;;;;;;5046903;28;20041;-51
2023/01/01 09:29:20;;;;;;;4.43;0.43;;;11.00;99.90;;;;;;5044819;28;20091;-51
2023/01/01 09:31:47;;;;;;;4.20;1.40;;;11.10;99.90;;;;;;5046846;28;20068;-51
2023/01/01 09:34:13;;;;;;;7.72;1.17;;;11.40;99.90;;;;;;5047093;28;20048;-52
2023/01/01 09:36:38;;;;;;;11.32;1.17;;;11.10;99.90;;;;;;5047431;28;20473;-51
2023/01/01 09:39:05;;;;;;;7.28;0.90;;;11.10;99.90;;;;;;5046816;28;20120;-51
2023/01/01 09:41:56;;;;;;;7.35;0.77;;;11.10;99.90;;;;;;5045529;28;20053;-50
2023/01/01 09:44:40;;;;;;;17.88;1.20;;;11.10;99.90;;;;;;5047063;28;20475;-49
2023/01/01 09:47:28;;;;;;;10.13;1.13;;;11.10;99.90;;;;;;5047284;28;20127;-52
2023/01/01 09:49:58;;;;;;;6.22;0.63;;;11.20;99.90;;;;;;5046727;28;20124;-47
2023/01/01 09:52:38;;;;;;;8.30;0.60;;;11.10;99.90;;;;;;5047822;28;20041;-51
2023/01/01 09:55:14;;;;;;;13.63;1.08;;;11.10;99.90;;;;;;5047469;28;20049;-50
2023/01/01 09:57:40;;;;;;;11.77;1.25;;;11.20;99.90;;;;;;5047578;28;20048;-50
2023/01/01 10:00:14;;;;;;;10.73;0.55;;;11.20;99.90;;;;;;5046701;28;20045;-51
2023/01/01 10:02:49;;;;;;;11.40;1.33;;;11.20;99.90;;;;;;5047287;28;20079;-49
2023/01/01 10:05:39;;;;;;;6.35;0.75;;;11.20;99.90;;;;;;5046687;28;20179;-49
2023/01/01 10:08:07;;;;;;;8.20;0.60;;;11.20;99.90;;;;;;5046728;28;20037;-48
2023/01/01 10:10:49;;;;;;;10.30;2.00;;;11.20;99.90;;;;;;5046914;28;20033;-50
2023/01/01 10:13:23;;;;;;;10.57;1.25;;;11.20;99.90;;;;;;5046586;28;20114;-49
2023/01/01 10:15:58;;;;;;;15.18;2.22;;;11.20;99.90;;;;;;5046870;28;20045;-50
2023/01/01 10:18:33;;;;;;;15.55;1.45;;;11.10;99.90;;;;;;5046184;28;20792;-52
2023/01/01 10:21:16;;;;;;;10.45;1.25;;;11.10;99.90;;;;;;5046881;28;20072;-51
2023/01/01 10:23:56;;;;;;;13.45;1.42;;;11.00;99.90;;;;;;5030405;28;20673;-51
2023/01/01 10:26:28;;;;;;;11.40;1.38;;;10.90;99.90;;;;;;5044771;28;20045;-51
2023/01/01 10:29:00;;;;;;;16.58;1.73;;;10.90;99.90;;;;;;5044439;28;20041;-48
2023/01/01 10:31:31;;;;;;;;;;;10.90;99.90;;;;;;5044746;28;20064;-50
2023/01/01 10:33:57;;;;;;;10.77;1.05;;;10.90;99.90;;;;;;5044583;28;19920;-50
2023/01/01 10:36:24;;;;;;;10.63;1.48;;;10.90;99.90;;;;;;5043865;28;20399;-49
2023/01/01 10:38:50;;;;;;;11.05;1.60;;;10.80;99.90;;;;;;5044971;28;20384;-51
2023/01/01 10:41:16;;;;;;;9.35;1.65;;;10.90;99.90;;;;;;5043216;28;20052;-50
2023/01/01 10:43:43;;;;;;;7.90;1.13;;;11.00;99.90;;;;;;5044698;28;20044;-49
2023/01/01 10:46:14;;;;;;;9.27;1.02;;;11.10;99.90;;;;;;5043589;28;20048;-52
2023/01/01 10:48:52;;;;;;;9.73;1.73;;;11.10;99.90;;;;;;5043356;28;20490;-51
2023/01/01 10:51:23;;;;;;;9.57;1.00;;;11.10;99.90;;;;;;5044180;28;20376;-53
2023/01/01 10:53:51;;;;;;;7.60;0.88;;;11.20;99.90;;;;;;5044733;28;20889;-50
2023/01/01 10:56:22;;;;;;;8.57;0.77;;;11.70;99.90;;;;;;5044514;28;20395;-50
2023/01/01 10:58:53;;;;;;;8.80;0.57;;;10.70;99.90;;;;;;5043966;28;20077;-53
2023/01/01 11:01:25;;;;;;;9.07;1.17;;;11.30;99.90;;;;;;5047672;28;20084;-52
2023/01/01 11:03:56;;;;;;;9.75;1.33;;;11.30;99.90;;;;;;5048649;28;20132;-48
2023/01/01 11:06:42;;;;;;;10.55;0.80;;;11.30;99.90;;;;;;5048212;28;20109;-54
2023/01/01 11:09:26;;;;;;;8.02;1.50;;;11.20;99.90;;;;;;5047879;28;20053;-51
2023/01/01 11:11:58;;;;;;;7.88;0.95;;;11.20;99.90;;;;;;5048254;28;20094;-50
2023/01/01 11:14:47;;;;;;;7.32;0.65;;;11.30;99.90;;;;;;5048332;28;20080;-54
2023/01/01 11:17:20;;;;;;;8.23;0.90;;;11.20;99.90;;;;;;5047952;28;20100;-53
2023/01/01 11:19:48;;;;;;;9.10;0.52;;;11.20;99.90;;;;;;5048799;28;20052;-54
2023/01/01 11:22:38;;;;;;;9.27;0.90;;;11.30;99.90;;;;;;5046840;28;20053;-54
2023/01/01 11:25:22;;;;;;;7.63;0.60;;;11.20;99.90;;;;;;5024704;28;20658;-54
2023/01/01 11:27:49;;;;;;;11.00;1.10;;;11.20;99.90;;;;;;5048239;28;20041;-53
2023/01/01 11:30:20;;;;;;;10.40;0.43;;;11.20;99.90;;;;;;5047827;28;20116;-54
2023/01/01 11:32:47;;;;;;;9.50;0.80;;;11.20;99.90;;;;;;5047031;28;20041;-57
2023/01/01 11:35:22;;;;;;;6.95;0.75;;;12.40;99.90;;;;;;5044119;28;20045;-57
2023/01/01 11:37:50;;;;;;;9.70;1.02;;;11.40;99.90;;;;;;5045299;28;20826;-49
2023/01/01 11:40:46;;;;;;;8.80;1.00;;;11.20;99.90;;;;;;5046889;28;20137;-55
2023/01/01 11:43:21;;;;;;;7.63;0.70;;;11.20;99.90;;;;;;5046755;28;20479;-52
2023/01/01 11:45:48;;;;;;;8.68;0.80;;;11.20;99.90;;;;;;5047034;28;20094;-49
2023/01/01 11:48:31;;;;;;;7.05;0.75;;;11.20;99.90;;;;;;5046472;28;20041;-49
2023/01/01 11:51:03;;;;;;;9.60;0.80;;;11.40;99.90;;;;;;5045985;28;20059;-51
2023/01/01 11:53:38;;;;;;;16.13;1.00;;;11.50;99.90;;;;;;5044320;28;20562;-50
2023/01/01 11:56:22;;;;;;;9.75;0.93;;;11.50;99.90;;;;;;5046206;28;20044;-48
2023/01/01 11:59:05;;;;;;;9.77;1.08;;;11.50;99.90;;;;;;5045259;28;20102;-55
2023/01/01 12:02:11;;;;;;;8.85;0.63;;;11.60;99.90;;;;;;5046371;28;20036;-56
2023/01/01 12:04:50;;;;;;;11.50;1.15;;;11.60;99.90;;;;;;5046074;28;20076;-57
2023/01/01 12:07:22;;;;;;;11.15;1.60;;;11.50;99.90;;;;;;5044310;28;20140;-57
2023/01/01 12:09:57;;;;;;;10.25;1.10;;;11.50;99.90;;;;;;5044620;28;20049;-58
2023/01/01 12:12:29;;;;;;;13.27;1.65;;;11.50;99.90;;;;;;5045132;28;20048;-57
2023/01/01 12:15:10;;;;;;;7.97;0.70;;;11.60;99.90;;;;;;5046286;28;20052;-56
2023/01/01 12:17:43;;;;;;;13.25;1.67;;;11.60;99.90;;;;;;5044167;28;20118;-55
2023/01/01 12:20:11;;;;;;;9.18;0.77;;;11.70;99.90;;;;;;5045786;28;20049;-52
2023/01/01 12:22:38;;;;;;;11.40;1.35;;;11.60;99.90;;;;;;5043690;28;20084;-56
2023/01/01 12:25:05;;;;;;;7.65;0.95;;;11.60;99.90;;;;;;5024339;28;20059;-56
2023/01/01 12:27:52;;;;;;;10.18;0.93;;;11.60;99.90;;;;;;5045635;28;20045;-58
2023/01/01 12:30:46;;;;;;;9.90;0.85;;;11.50;99.90;;;;;;5046437;28;20056;-63
2023/01/01 12:33:27;;;;;;;11.38;1.00;;;11.50;99.90;;;;;;5044084;28;20075;-55
2023/01/01 12:36:21;;;;;;;6.78;0.80;;;11.50;99.90;;;;;;5045820;28;20044;-54
2023/01/01 12:39:24;;;;;;;10.43;1.15;;;11.50;99.90;;;;;;5045774;28;20080;-58
2023/01/01 12:42:19;;;;;;;10.82;0.70;;;11.50;99.90;;;;;;5045463;28;20492;-60
2023/01/01 12:45:12;;;;;;;13.07;1.25;;;11.60;99.90;;;;;;5045854;28;20502;-57
2023/01/01 12:47:56;;;;;;;8.00;0.88;;;11.50;99.90;;;;;;5045759;28;20517;-54
2023/01/01 12:50:57;;;;;;;11.63;0.80;;;11.40;99.90;;;;;;5044927;28;20106;-56
2023/01/01 12:53:57;;;;;;;8.13;1.02;;;11.30;99.90;;;;;;5032325;28;20141;-57
2023/01/01 12:56:41;;;;;;;10.98;1.38;;;11.20;99.90;;;;;;5027320;28;20159;-58
2023/01/01 12:59:12;;;;;;;9.05;1.05;;;11.20;99.90;;;;;;5045099;28;20041;-60
2023/01/01 13:01:39;;;;;;;6.30;0.40;;;11.20;99.90;;;;;;5043044;28;20122;-60
2023/01/01 13:04:09;;;;;;;11.13;1.30;;;11.10;99.90;;;;;;5026864;28;20084;-62
2023/01/01 13:06:35;;;;;;;7.20;0.82;;;11.80;99.90;;;;;;5039991;28;20048;-60